»·PEaware :: SWA2382 KBUR-KSJC

SWA2382 :: KBUR-KSJC

FLIGHT INFORMATION

Flight Status: Arrived
Operator:
Southwest Airlines
More flights by this operator :: More flights under this callsign
Pilot: Ben F. (2808)
Aircraft: BOEING 737-200
(B732)
More flights by this aircraft type
Origin: KBUR Bob Hope-Burbank
United States
Destination: KSJC Mineta San Jose Intl
United States
More flights between these airports :: More routes between these airports
Route: VNY3 AVE ROBIE4
File this flight plan on PilotEdge
Remarks: PBN / A1B2 NAV / RNVD1E2A1 REG / N275SB EET / KZOA0023 RMK / SIMBRIEF
Altitude:
(Current/Filed)
32,000ft
Speed:
(Current/Filed)
441kts
Departed: 12-Aug-17 04:37 PM
Arrived: 12-Aug-17 05:27 PM
Distance/Time
Traveled:
258nm/0:50
Distance/Time
To Go:
Arrived

Flight Plot

Page will automatically refresh every two minutes.

Flight plan parsing failed; only flown route is shown


Map Options




Map Legend


Flown Route
Filed Route
Departure Airport
Arrival Airport
Navaid (VOR, NDB)
Fix

Horizontal Profiles

Position Reports

Time Latitude Longitude Heading Altitude Ground
Speed
12-Aug-17 16:27 34.196861 -118.351964 179 785ft 0kts
12-Aug-17 16:28 34.196861 -118.351964 179 785ft 0kts
12-Aug-17 16:29 34.196861 -118.351964 179 785ft 0kts
12-Aug-17 16:30 34.196861 -118.351964 179 785ft 0kts
12-Aug-17 16:30 34.196869 -118.351964 179 785ft 1kts
12-Aug-17 16:32 34.197185 -118.351796 263 785ft 0kts
12-Aug-17 16:33 34.197185 -118.351797 263 785ft 0kts
12-Aug-17 16:34 34.197177 -118.351931 268 785ft 2kts
12-Aug-17 16:35 34.197199 -118.353319 270 785ft 4kts
12-Aug-17 16:36 34.200865 -118.355939 347 785ft 21kts
12-Aug-17 16:37 34.206562 -118.357525 347 785ft 20kts
12-Aug-17 16:37 34.210854 -118.358706 346 785ft 15kts
12-Aug-17 16:38 34.211656 -118.359165 310 785ft 0kts
12-Aug-17 16:39 34.211308 -118.360189 166 785ft 0kts
12-Aug-17 16:40 34.185995 -118.354139 184 1387ft 159kts
12-Aug-17 16:41 34.147352 -118.396128 225 3050ft 228kts
12-Aug-17 16:42 34.162891 -118.463122 347 4403ft 280kts
12-Aug-17 16:43 34.239027 -118.473771 350 6321ft 279kts
12-Aug-17 16:44 34.316408 -118.487737 350 7776ft 288kts
12-Aug-17 16:45 34.396500 -118.502006 350 9135ft 295kts
12-Aug-17 16:46 34.479635 -118.517287 349 10674ft 323kts
12-Aug-17 16:47 34.573047 -118.534607 350 13061ft 349kts
12-Aug-17 16:48 34.666101 -118.556279 329 13021ft 353kts
12-Aug-17 16:49 34.742461 -118.634860 301 13070ft 377kts
12-Aug-17 16:50 34.760542 -118.747570 281 15959ft 339kts
12-Aug-17 16:51 34.794212 -118.856979 302 17940ft 359kts
12-Aug-17 16:52 34.866901 -118.935637 339 20185ft 377kts
12-Aug-17 16:53 34.959666 -118.993096 326 22165ft 385kts
12-Aug-17 16:54 35.049578 -119.063862 323 23981ft 395kts
12-Aug-17 16:55 35.140980 -119.138569 323 25423ft 407kts
12-Aug-17 16:56 35.234633 -119.215694 323 26871ft 414kts
12-Aug-17 16:57 35.330793 -119.295181 323 28129ft 421kts
12-Aug-17 16:58 35.426271 -119.374329 322 29632ft 416kts
12-Aug-17 16:59 35.522216 -119.454098 322 30760ft 416kts
12-Aug-17 17:00 35.572621 -119.571430 283 31729ft 402kts
12-Aug-17 17:01 35.598913 -119.706110 281 31906ft 423kts
12-Aug-17 17:02 35.625583 -119.850989 281 31881ft 448kts
12-Aug-17 17:03 35.656225 -120.001205 291 31839ft 455kts
12-Aug-17 17:04 35.701567 -120.140264 291 31860ft 440kts
12-Aug-17 17:05 35.747160 -120.278961 291 31915ft 438kts
12-Aug-17 17:06 35.792426 -120.417680 291 31913ft 438kts
12-Aug-17 17:07 35.837064 -120.555879 291 31913ft 438kts
12-Aug-17 17:08 35.881006 -120.692706 291 31917ft 438kts
12-Aug-17 17:09 35.925525 -120.830904 291 31775ft 428kts
12-Aug-17 17:10 35.968555 -120.964864 291 29646ft 422kts
12-Aug-17 17:11 36.047702 -121.064441 322 27715ft 415kts
12-Aug-17 17:12 36.132253 -121.138895 323 25946ft 407kts
12-Aug-17 17:13 36.221014 -121.215676 322 24066ft 397kts
12-Aug-17 17:14 36.309239 -121.292026 323 22313ft 384kts
12-Aug-17 17:15 36.394967 -121.366346 323 20581ft 371kts
12-Aug-17 17:16 36.475562 -121.436653 322 19913ft 344kts
12-Aug-17 17:17 36.557562 -121.509533 323 17804ft 366kts
12-Aug-17 17:18 36.638292 -121.581085 323 16006ft 356kts
12-Aug-17 17:19 36.729388 -121.609496 0 14201ft 354kts
12-Aug-17 17:20 36.824603 -121.605190 0 12368ft 326kts
12-Aug-17 17:21 36.908474 -121.605919 357 10231ft 287kts
12-Aug-17 17:22 36.985105 -121.610328 343 8086ft 273kts
12-Aug-17 17:23 37.057213 -121.634239 343 6208ft 262kts
12-Aug-17 17:24 37.120379 -121.666080 317 4885ft 242kts
12-Aug-17 17:25 37.167048 -121.716230 317 3941ft 216kts
12-Aug-17 17:26 37.211445 -121.758226 319 2989ft 189kts
12-Aug-17 17:27 37.256300 -121.803188 305 2217ft 238kts
12-Aug-17 17:28 37.301037 -121.859870 318 1236ft 209kts
12-Aug-17 17:29 37.340790 -121.902681 317 500ft 183kts
12-Aug-17 17:30 37.370590 -121.935352 319 71ft 19kts
12-Aug-17 17:31 37.371057 -121.934164 135 71ft 14kts
12-Aug-17 17:32 37.368993 -121.930946 137 71ft 10kts
12-Aug-17 17:33 37.368519 -121.929475 48 71ft 4kts

Navigation Log

Ident Type
Flight plan parsing failed, navigation log unavailable